createdAt,value
2022-08-29T00:00:18.057Z,87.64
2022-08-29T00:03:02.036Z,87.64
2022-08-29T00:05:39.863Z,87.84
2022-08-29T00:08:08.488Z,88.01
2022-08-29T00:10:39.414Z,88.02
2022-08-29T00:13:09.062Z,87.99
2022-08-29T00:15:44.463Z,88.11
2022-08-29T00:18:16.538Z,88.20
2022-08-29T00:20:45.106Z,88.42
2022-08-29T00:23:13.439Z,88.65
2022-08-29T00:25:41.489Z,88.07
2022-08-29T00:28:09.505Z,88.00
2022-08-29T00:30:40.714Z,88.16
2022-08-29T00:33:09.346Z,88.33
2022-08-29T00:35:39.237Z,88.59
2022-08-29T00:38:11.891Z,88.65
2022-08-29T00:40:53.846Z,88.66
2022-08-29T00:43:25.140Z,88.55
2022-08-29T00:46:40.390Z,89.06
2022-08-29T00:49:29.288Z,88.87
2022-08-29T00:51:59.745Z,88.88
2022-08-29T00:54:28.238Z,89.31
2022-08-29T00:56:56.845Z,89.44
2022-08-29T00:59:29.009Z,89.58
2022-08-29T01:01:57.150Z,89.81
2022-08-29T01:04:25.190Z,89.70
2022-08-29T01:06:54.441Z,89.51
2022-08-29T01:09:24.338Z,89.42
2022-08-29T01:12:11.769Z,89.66
2022-08-29T01:15:02.736Z,89.92
2022-08-29T01:17:35.388Z,89.85
2022-08-29T01:20:19.595Z,90.17
2022-08-29T01:23:16.285Z,90.47
2022-08-29T01:25:51.148Z,90.70
2022-08-29T01:28:21.570Z,90.92
2022-08-29T01:31:11.698Z,90.88
2022-08-29T01:33:57.105Z,91.05
2022-08-29T01:36:32.500Z,91.34
2022-08-29T01:39:01.039Z,91.41
2022-08-29T01:41:29.309Z,91.56
2022-08-29T01:43:57.496Z,91.77
2022-08-29T01:46:32.358Z,91.66
2022-08-29T01:49:06.037Z,91.67
2022-08-29T01:51:35.415Z,91.82
2022-08-29T01:54:06.286Z,91.92
2022-08-29T01:56:38.793Z,92.12
2022-08-29T01:59:11.054Z,92.20
2022-08-29T02:01:42.417Z,92.08
2022-08-29T02:04:10.469Z,92.00
2022-08-29T02:06:38.498Z,92.12
2022-08-29T02:09:07.921Z,92.10
2022-08-29T02:11:40.108Z,92.18
2022-08-29T02:14:16.170Z,92.18
2022-08-29T02:16:48.636Z,92.26
2022-08-29T02:19:16.935Z,92.22
2022-08-29T02:21:45.044Z,92.22
2022-08-29T02:24:25.358Z,92.18
2022-08-29T02:26:55.485Z,92.32
2022-08-29T02:29:25.063Z,92.52
2022-08-29T02:31:53.247Z,92.56
2022-08-29T02:34:21.464Z,92.44
2022-08-29T02:36:49.462Z,92.40
2022-08-29T02:39:18.348Z,92.51
2022-08-29T02:41:46.330Z,92.51
2022-08-29T02:44:14.254Z,92.42
2022-08-29T02:46:42.233Z,92.33
2022-08-29T02:49:10.185Z,92.27
2022-08-29T02:51:38.610Z,92.27
2022-08-29T02:54:06.898Z,92.22
2022-08-29T02:56:35.192Z,92.16
2022-08-29T02:59:03.308Z,92.12
2022-08-29T03:01:31.464Z,92.09
2022-08-29T03:03:59.571Z,92.10
2022-08-29T03:06:27.482Z,91.93
2022-08-29T03:08:55.718Z,91.90
2022-08-29T03:11:24.530Z,91.92
2022-08-29T03:13:52.374Z,91.98
2022-08-29T03:16:27.260Z,92.07
2022-08-29T03:18:55.718Z,92.16
2022-08-29T03:21:26.842Z,92.01
2022-08-29T03:23:56.611Z,92.02
2022-08-29T03:26:25.512Z,92.00
2022-08-29T03:28:53.538Z,91.90
2022-08-29T03:31:22.329Z,91.84
2022-08-29T03:33:50.255Z,91.80
2022-08-29T03:36:19.274Z,91.74
2022-08-29T03:38:50.391Z,91.65
2022-08-29T03:41:24.063Z,91.65
2022-08-29T03:43:52.109Z,91.57
2022-08-29T03:46:20.159Z,91.49
2022-08-29T03:48:51.756Z,91.53
2022-08-29T03:51:22.077Z,91.53
2022-08-29T03:53:50.019Z,91.52
2022-08-29T03:56:18.878Z,91.57
2022-08-29T03:58:53.362Z,91.47
2022-08-29T04:01:24.930Z,91.39
2022-08-29T04:03:54.955Z,91.21
2022-08-29T04:06:25.213Z,91.24
2022-08-29T04:08:53.357Z,91.41
2022-08-29T04:11:25.045Z,91.40
2022-08-29T04:13:53.898Z,91.42
2022-08-29T04:16:30.945Z,91.46
2022-08-29T04:19:00.079Z,91.47
2022-08-29T04:21:28.367Z,91.40
2022-08-29T04:23:56.585Z,91.49
2022-08-29T04:26:36.746Z,91.53
2022-08-29T04:29:08.565Z,91.64
2022-08-29T04:31:38.013Z,91.60
2022-08-29T04:34:07.615Z,91.67
2022-08-29T04:36:37.714Z,91.62
2022-08-29T04:39:06.637Z,91.74
2022-08-29T04:41:35.679Z,91.70
2022-08-29T04:44:05.390Z,91.37
2022-08-29T04:46:33.572Z,91.41
2022-08-29T04:49:04.456Z,91.36
2022-08-29T04:51:35.712Z,91.29
2022-08-29T04:54:05.090Z,91.18
2022-08-29T04:56:34.653Z,91.12
2022-08-29T04:59:03.510Z,91.13
2022-08-29T05:01:31.993Z,91.10
2022-08-29T05:04:00.043Z,91.02
2022-08-29T05:06:28.527Z,90.98
2022-08-29T05:08:58.967Z,90.98
2022-08-29T05:11:32.598Z,90.96
2022-08-29T05:14:00.859Z,91.07
2022-08-29T05:16:30.972Z,91.04
2022-08-29T05:18:59.855Z,90.89
2022-08-29T05:21:36.723Z,90.87
2022-08-29T05:24:07.421Z,90.95
2022-08-29T05:26:38.179Z,90.72
2022-08-29T05:29:08.560Z,90.41
2022-08-29T05:31:39.030Z,90.46
2022-08-29T05:34:31.863Z,90.36
2022-08-29T05:36:56.822Z,90.05
2022-08-29T05:39:24.689Z,89.85
2022-08-29T05:41:55.737Z,89.47
2022-08-29T05:44:24.646Z,89.37
2022-08-29T05:46:52.604Z,89.27
2022-08-29T05:49:21.394Z,88.88
2022-08-29T05:51:53.492Z,89.21
2022-08-29T05:54:22.790Z,89.09
2022-08-29T05:56:51.625Z,89.10
2022-08-29T05:59:19.955Z,89.11
2022-08-29T06:01:47.805Z,88.69
2022-08-29T06:04:15.794Z,88.74
2022-08-29T06:06:43.651Z,88.98
2022-08-29T06:09:12.667Z,88.66
2022-08-29T06:11:40.562Z,88.44
2022-08-29T06:14:08.475Z,88.27
2022-08-29T06:16:36.384Z,88.27
2022-08-29T06:19:04.285Z,88.01
2022-08-29T06:21:32.179Z,88.25
2022-08-29T06:24:00.411Z,88.13
2022-08-29T06:26:28.272Z,87.79
2022-08-29T06:28:56.191Z,87.85
2022-08-29T06:31:29.438Z,87.80
2022-08-29T06:34:00.298Z,87.75
2022-08-29T06:36:30.211Z,87.68
2022-08-29T06:39:00.300Z,87.31
2022-08-29T06:41:29.201Z,86.82
2022-08-29T06:43:57.445Z,86.92
2022-08-29T06:46:34.143Z,87.17
2022-08-29T06:49:04.450Z,87.32
2022-08-29T06:51:36.001Z,86.94
2022-08-29T06:54:07.208Z,85.81
2022-08-29T06:56:36.608Z,85.52
2022-08-29T06:59:09.398Z,84.89
2022-08-29T07:01:37.698Z,85.13
2022-08-29T07:04:05.605Z,84.95
2022-08-29T07:06:43.000Z,84.23
2022-08-29T07:09:11.554Z,83.42
2022-08-29T07:11:41.433Z,83.17
2022-08-29T07:14:11.274Z,83.02
2022-08-29T07:16:41.256Z,82.45
2022-08-29T07:19:11.044Z,82.93
2022-08-29T07:21:40.015Z,83.12
2022-08-29T07:24:08.418Z,83.04
2022-08-29T07:26:42.193Z,83.05
2022-08-29T07:29:14.773Z,82.76
2022-08-29T07:31:42.859Z,82.63
2022-08-29T07:34:11.399Z,82.61
2022-08-29T07:36:39.561Z,82.06
2022-08-29T07:39:11.696Z,82.07
2022-08-29T07:41:40.734Z,82.25
2022-08-29T07:44:09.470Z,82.51
2022-08-29T07:46:38.224Z,82.75
2022-08-29T07:49:07.278Z,83.19
2022-08-29T07:51:35.907Z,82.93
2022-08-29T07:54:04.750Z,83.32
2022-08-29T07:56:41.412Z,83.41
2022-08-29T07:59:09.867Z,82.88
2022-08-29T08:01:38.754Z,82.39
2022-08-29T08:04:11.325Z,82.10
2022-08-29T08:06:42.053Z,82.30
2022-08-29T08:09:11.424Z,81.96
2022-08-29T08:11:39.954Z,82.32
2022-08-29T08:14:08.835Z,82.45
2022-08-29T08:16:37.240Z,81.85
2022-08-29T08:19:06.118Z,81.21
2022-08-29T08:21:34.569Z,80.96
2022-08-29T08:24:03.797Z,80.41
2022-08-29T08:26:31.737Z,79.94
2022-08-29T08:28:59.952Z,79.53
2022-08-29T08:31:28.187Z,78.61
2022-08-29T08:33:56.594Z,78.08
2022-08-29T08:36:28.789Z,77.45
2022-08-29T08:38:59.556Z,76.56
2022-08-29T08:41:33.516Z,76.33
2022-08-29T08:44:07.380Z,75.43
2022-08-29T08:46:42.206Z,74.49
2022-08-29T08:49:19.026Z,73.07
2022-08-29T08:51:53.755Z,73.31
2022-08-29T08:54:27.717Z,73.43
2022-08-29T08:57:06.651Z,73.30
2022-08-29T08:59:43.681Z,73.93
2022-08-29T09:02:36.728Z,74.77
2022-08-29T09:05:14.840Z,74.75
2022-08-29T09:07:48.556Z,74.99
2022-08-29T09:10:38.938Z,75.71
2022-08-29T09:13:28.496Z,75.11
2022-08-29T09:16:01.155Z,74.02
2022-08-29T09:18:40.535Z,73.77
2022-08-29T09:21:40.196Z,73.72
2022-08-29T09:24:16.515Z,73.56
2022-08-29T09:26:44.515Z,72.87
2022-08-29T09:29:14.204Z,72.34
2022-08-29T09:31:42.315Z,70.41
2022-08-29T09:34:15.662Z,66.75
2022-08-29T09:36:52.539Z,63.44
2022-08-29T09:39:26.617Z,61.56
2022-08-29T09:42:14.635Z,62.44
2022-08-29T09:44:53.671Z,63.76
2022-08-29T09:47:24.921Z,64.06
2022-08-29T09:50:07.465Z,64.04
2022-08-29T09:52:41.742Z,64.80
2022-08-29T09:55:28.362Z,64.14
2022-08-29T09:58:05.270Z,64.16
2022-08-29T10:00:38.001Z,64.09
2022-08-29T10:03:11.012Z,64.73
2022-08-29T10:05:46.379Z,65.55
2022-08-29T10:08:54.855Z,65.66
2022-08-29T10:11:48.732Z,62.73
2022-08-29T10:15:04.834Z,61.85
2022-08-29T10:17:58.417Z,61.54
2022-08-29T10:20:44.614Z,62.92
2022-08-29T10:23:35.482Z,62.07
2022-08-29T10:26:10.335Z,62.37
2022-08-29T10:28:47.005Z,60.55
2022-08-29T10:31:26.502Z,57.46
2022-08-29T10:34:29.460Z,54.16
2022-08-29T10:37:03.316Z,50.10
2022-08-29T10:39:50.877Z,49.67
2022-08-29T10:42:25.734Z,50.60
2022-08-29T10:45:14.445Z,53.15
2022-08-29T10:47:52.447Z,51.81
2022-08-29T10:50:48.298Z,50.53
2022-08-29T10:53:27.917Z,52.00
2022-08-29T10:56:04.498Z,50.48
2022-08-29T10:58:47.187Z,48.15
2022-08-29T11:01:22.474Z,47.91
2022-08-29T11:04:06.357Z,48.01
2022-08-29T11:06:47.446Z,46.46
2022-08-29T11:09:24.596Z,45.79
2022-08-29T11:12:17.415Z,42.96
2022-08-29T11:14:59.995Z,40.69
2022-08-29T11:17:34.863Z,38.34
2022-08-29T11:20:11.639Z,38.61
2022-08-29T11:22:46.832Z,39.49
2022-08-29T11:25:20.296Z,39.02
2022-08-29T11:28:10.749Z,37.48
2022-08-29T11:30:59.836Z,35.70
2022-08-29T11:33:57.240Z,35.46
2022-08-29T11:36:28.301Z,36.55
2022-08-29T11:39:23.812Z,37.42
2022-08-29T11:41:58.543Z,39.59
2022-08-29T11:44:33.837Z,39.36
2022-08-29T11:47:30.569Z,39.03
2022-08-29T11:50:27.112Z,37.53
2022-08-29T11:53:08.278Z,36.98
2022-08-29T11:55:37.876Z,36.98
2022-08-29T11:58:29.116Z,35.94
2022-08-29T12:00:58.566Z,36.32
2022-08-29T12:03:47.101Z,35.86
2022-08-29T12:06:37.219Z,35.93
2022-08-29T12:09:13.316Z,36.73
2022-08-29T12:12:02.656Z,36.70
2022-08-29T12:14:37.710Z,36.70
2022-08-29T12:17:16.721Z,35.01
2022-08-29T12:19:49.928Z,35.20
2022-08-29T12:22:47.110Z,35.89
2022-08-29T12:26:09.875Z,36.53
2022-08-29T12:29:19.558Z,36.73
2022-08-29T12:32:18.107Z,34.73
2022-08-29T12:34:47.389Z,35.94
2022-08-29T12:37:56.538Z,37.04
2022-08-29T12:41:06.156Z,36.97
2022-08-29T12:43:44.329Z,37.35
2022-08-29T12:46:24.235Z,35.45
2022-08-29T12:49:23.691Z,34.46
2022-08-29T12:51:58.785Z,34.88
2022-08-29T12:54:33.441Z,35.57
2022-08-29T12:57:02.753Z,36.00
2022-08-29T12:59:30.735Z,35.29
2022-08-29T13:01:59.553Z,35.43
2022-08-29T13:04:35.378Z,35.16
2022-08-29T13:07:06.930Z,34.96
2022-08-29T13:09:43.204Z,33.90
2022-08-29T13:12:11.046Z,34.50
2022-08-29T13:14:57.342Z,35.31
2022-08-29T13:17:34.886Z,36.26
2022-08-29T13:20:40.432Z,35.31
2022-08-29T13:23:28.056Z,34.53
2022-08-29T13:25:59.150Z,35.27
2022-08-29T13:28:41.352Z,36.21
2022-08-29T13:31:12.113Z,35.12
2022-08-29T13:34:08.785Z,36.06
2022-08-29T13:37:01.398Z,37.09
2022-08-29T13:39:41.057Z,37.28
2022-08-29T13:42:20.538Z,37.25
2022-08-29T13:45:07.568Z,37.86
2022-08-29T13:47:51.148Z,36.60
2022-08-29T13:50:19.166Z,36.39
2022-08-29T13:52:50.945Z,35.63
2022-08-29T13:55:19.333Z,34.41
2022-08-29T13:57:50.962Z,32.50
2022-08-29T14:00:31.941Z,31.02
2022-08-29T14:03:01.629Z,31.14
2022-08-29T14:05:29.716Z,33.86
2022-08-29T14:07:57.667Z,34.96
2022-08-29T14:10:25.623Z,34.95
2022-08-29T14:12:53.596Z,35.36
2022-08-29T14:15:21.515Z,35.08
2022-08-29T14:17:49.731Z,34.28
2022-08-29T14:20:18.971Z,34.06
2022-08-29T14:22:47.620Z,33.84
2022-08-29T14:25:18.146Z,32.35
2022-08-29T14:27:47.796Z,30.97
2022-08-29T14:30:20.293Z,28.85
2022-08-29T14:32:48.324Z,27.76
2022-08-29T14:35:26.740Z,27.52
2022-08-29T14:38:01.318Z,28.02
2022-08-29T14:40:32.738Z,27.53
2022-08-29T14:43:02.866Z,28.48
2022-08-29T14:45:32.416Z,29.09
2022-08-29T14:48:02.160Z,29.42
2022-08-29T14:50:30.301Z,29.24
2022-08-29T14:52:58.351Z,29.63
2022-08-29T14:55:26.359Z,29.06
2022-08-29T14:57:54.225Z,27.96
2022-08-29T15:00:27.246Z,28.16
2022-08-29T15:02:55.416Z,27.13
2022-08-29T15:05:24.215Z,27.01
2022-08-29T15:07:52.285Z,26.39
2022-08-29T15:10:23.485Z,26.31
2022-08-29T15:12:51.874Z,27.16
2022-08-29T15:15:29.367Z,27.81
2022-08-29T15:18:05.436Z,28.73
2022-08-29T15:20:37.317Z,29.42
2022-08-29T15:23:06.701Z,30.06
2022-08-29T15:25:35.125Z,30.29
2022-08-29T15:28:03.749Z,29.50
2022-08-29T15:30:32.445Z,28.89
2022-08-29T15:33:00.288Z,29.20
2022-08-29T15:35:28.328Z,29.61
2022-08-29T15:37:56.599Z,30.06
2022-08-29T15:40:24.606Z,30.42
2022-08-29T15:42:52.450Z,30.28
2022-08-29T15:45:22.466Z,29.11
2022-08-29T15:47:54.106Z,28.21
2022-08-29T15:50:23.817Z,29.26
2022-08-29T15:52:51.945Z,29.44
2022-08-29T15:55:20.340Z,29.54
2022-08-29T15:57:52.315Z,31.18
2022-08-29T16:00:30.168Z,31.37
2022-08-29T16:03:03.058Z,31.42
2022-08-29T16:05:32.756Z,31.49
2022-08-29T16:08:01.294Z,31.39
2022-08-29T16:10:30.507Z,31.43
2022-08-29T16:12:59.005Z,31.79
2022-08-29T16:15:29.043Z,32.68
2022-08-29T16:17:59.726Z,33.52
2022-08-29T16:20:28.888Z,34.28
2022-08-29T16:22:56.958Z,34.55
2022-08-29T16:25:26.204Z,34.43
2022-08-29T16:27:55.487Z,34.42
2022-08-29T16:30:23.752Z,34.21
2022-08-29T16:32:51.811Z,34.20
2022-08-29T16:35:20.238Z,34.89
2022-08-29T16:38:00.376Z,36.84
2022-08-29T16:40:32.453Z,39.19
2022-08-29T16:43:01.984Z,40.67
2022-08-29T16:45:30.797Z,42.07
2022-08-29T16:47:59.993Z,43.37
2022-08-29T16:50:29.515Z,44.68
2022-08-29T16:52:57.804Z,45.40
2022-08-29T16:55:26.224Z,46.05
2022-08-29T16:58:12.924Z,46.45
2022-08-29T17:00:41.404Z,46.78
2022-08-29T17:03:09.298Z,47.14
2022-08-29T17:05:37.775Z,47.17
2022-08-29T17:08:05.671Z,47.91
2022-08-29T17:10:33.620Z,47.85
2022-08-29T17:13:01.637Z,48.38
2022-08-29T17:15:29.534Z,48.64
2022-08-29T17:17:57.425Z,49.00
2022-08-29T17:20:25.412Z,49.47
2022-08-29T17:22:54.662Z,50.04
2022-08-29T17:25:23.300Z,49.90
2022-08-29T17:28:14.069Z,50.17
2022-08-29T17:30:40.643Z,50.37
2022-08-29T17:33:11.007Z,50.46
2022-08-29T17:35:38.917Z,50.73
2022-08-29T17:38:06.888Z,50.85
2022-08-29T17:40:36.855Z,51.17
2022-08-29T17:43:04.965Z,51.73
2022-08-29T17:45:33.188Z,51.81
2022-08-29T17:48:01.555Z,52.10
2022-08-29T17:50:29.519Z,52.23
2022-08-29T17:52:58.195Z,52.38
2022-08-29T17:55:27.574Z,53.00
2022-08-29T17:57:59.170Z,52.96
2022-08-29T18:00:27.437Z,53.03
2022-08-29T18:02:55.447Z,53.14
2022-08-29T18:05:23.876Z,53.77
2022-08-29T18:07:52.037Z,54.17
2022-08-29T18:10:23.448Z,54.34
2022-08-29T18:12:51.371Z,54.41
2022-08-29T18:15:19.325Z,54.32
2022-08-29T18:17:47.349Z,54.92
2022-08-29T18:20:19.544Z,55.19
2022-08-29T18:22:50.356Z,55.49
2022-08-29T18:25:22.740Z,55.80
2022-08-29T18:27:50.992Z,55.76
2022-08-29T18:30:19.319Z,56.14
2022-08-29T18:32:47.302Z,56.50
2022-08-29T18:35:16.121Z,56.74
2022-08-29T18:37:44.125Z,57.03
2022-08-29T18:40:12.069Z,57.43
2022-08-29T18:42:41.433Z,57.28
2022-08-29T18:45:10.295Z,57.76
2022-08-29T18:47:38.306Z,57.86
2022-08-29T18:50:25.473Z,58.39
2022-08-29T18:52:55.607Z,58.59
2022-08-29T18:55:24.052Z,58.77
2022-08-29T18:57:54.086Z,58.96
2022-08-29T19:00:25.166Z,59.40
2022-08-29T19:02:54.795Z,59.49
2022-08-29T19:05:24.778Z,59.62
2022-08-29T19:07:54.891Z,59.85
2022-08-29T19:10:23.745Z,60.17
2022-08-29T19:12:53.553Z,60.36
2022-08-29T19:15:24.649Z,60.43
2022-08-29T19:17:53.729Z,60.46
2022-08-29T19:20:43.487Z,60.56
2022-08-29T19:23:12.250Z,60.73
2022-08-29T19:25:41.229Z,60.91
2022-08-29T19:28:10.775Z,61.02
2022-08-29T19:30:39.425Z,61.17
2022-08-29T19:33:09.570Z,61.42
2022-08-29T19:35:38.974Z,61.58
2022-08-29T19:38:07.837Z,61.80
2022-08-29T19:40:39.341Z,61.97
2022-08-29T19:43:13.714Z,62.19
2022-08-29T19:45:43.515Z,62.31
2022-08-29T19:48:15.082Z,62.52
2022-08-29T19:50:47.735Z,62.63
2022-08-29T19:53:24.694Z,62.81
2022-08-29T19:55:56.506Z,63.16
2022-08-29T19:58:31.925Z,63.44
2022-08-29T20:01:06.964Z,63.56
2022-08-29T20:03:39.062Z,63.71
2022-08-29T20:06:08.793Z,63.78
2022-08-29T20:08:42.778Z,64.04
2022-08-29T20:11:18.302Z,64.30
2022-08-29T20:13:50.656Z,64.52
2022-08-29T20:16:23.879Z,64.52
2022-08-29T20:18:53.295Z,64.59
2022-08-29T20:21:23.768Z,64.83
2022-08-29T20:23:58.032Z,64.98
2022-08-29T20:26:31.664Z,65.24
2022-08-29T20:29:01.267Z,65.39
2022-08-29T20:31:29.575Z,65.52
2022-08-29T20:33:57.885Z,65.71
2022-08-29T20:36:44.659Z,66.05
2022-08-29T20:39:16.577Z,66.29
2022-08-29T20:41:51.535Z,66.50
2022-08-29T20:44:20.593Z,66.83
2022-08-29T20:46:49.982Z,66.75
2022-08-29T20:49:23.255Z,67.14
2022-08-29T20:51:52.783Z,67.60
2022-08-29T20:54:23.814Z,67.67
2022-08-29T20:56:53.719Z,68.06
2022-08-29T20:59:26.300Z,67.98
2022-08-29T21:01:55.921Z,68.11
2022-08-29T21:04:43.068Z,68.39
2022-08-29T21:07:14.041Z,68.44
2022-08-29T21:09:44.729Z,68.81
2022-08-29T21:12:14.459Z,69.16
2022-08-29T21:14:43.195Z,69.41
2022-08-29T21:17:13.037Z,69.56
2022-08-29T21:19:41.926Z,69.79
2022-08-29T21:22:12.748Z,69.71
2022-08-29T21:24:41.354Z,70.03
2022-08-29T21:27:09.955Z,70.27
2022-08-29T21:29:38.057Z,70.45
2022-08-29T21:32:05.975Z,70.77
2022-08-29T21:34:33.921Z,71.11
2022-08-29T21:37:01.858Z,71.27
2022-08-29T21:39:30.841Z,71.17
2022-08-29T21:42:02.425Z,71.23
2022-08-29T21:44:31.814Z,71.21
2022-08-29T21:47:00.248Z,71.35
2022-08-29T21:49:30.510Z,71.62
2022-08-29T21:51:59.678Z,71.88
2022-08-29T21:54:27.963Z,71.83
2022-08-29T21:56:55.958Z,71.90
2022-08-29T21:59:25.286Z,72.23
2022-08-29T22:01:55.068Z,72.21
2022-08-29T22:04:28.964Z,72.35
2022-08-29T22:06:59.643Z,72.54
2022-08-29T22:09:29.540Z,72.54
2022-08-29T22:11:58.759Z,72.71
2022-08-29T22:14:46.770Z,72.91
2022-08-29T22:17:15.842Z,73.08
2022-08-29T22:19:43.866Z,73.12
2022-08-29T22:22:11.880Z,73.35
2022-08-29T22:24:39.768Z,73.68
2022-08-29T22:27:08.255Z,73.75
2022-08-29T22:29:37.569Z,73.87
2022-08-29T22:32:05.660Z,74.02
2022-08-29T22:34:34.019Z,74.13
2022-08-29T22:37:02.238Z,74.05
2022-08-29T22:39:30.164Z,74.32
2022-08-29T22:41:58.218Z,74.40
2022-08-29T22:47:15.165Z,74.62
2022-08-29T22:49:43.031Z,74.79
2022-08-29T22:52:11.695Z,74.83
2022-08-29T22:54:40.455Z,75.04
2022-08-29T22:57:14.282Z,75.13
2022-08-29T22:59:44.085Z,75.19
2022-08-29T23:02:13.367Z,75.37
2022-08-29T23:04:41.715Z,75.40
2022-08-29T23:07:11.838Z,75.37
2022-08-29T23:09:43.082Z,75.31
2022-08-29T23:12:13.122Z,75.46
2022-08-29T23:14:43.859Z,75.54
2022-08-29T23:17:12.364Z,75.87
2022-08-29T23:19:41.020Z,76.10
2022-08-29T23:22:11.244Z,76.22
2022-08-29T23:24:41.349Z,76.45
2022-08-29T23:27:21.887Z,76.45
2022-08-29T23:29:51.774Z,76.53
2022-08-29T23:32:19.778Z,76.90
2022-08-29T23:34:47.651Z,76.90
2022-08-29T23:37:15.542Z,77.09
2022-08-29T23:39:43.435Z,77.35
2022-08-29T23:42:11.334Z,77.44
2022-08-29T23:44:39.336Z,77.54
2022-08-29T23:47:08.609Z,77.35
2022-08-29T23:49:36.503Z,77.37
2022-08-29T23:52:05.514Z,77.74
2022-08-29T23:54:36.723Z,77.92
2022-08-29T23:57:05.038Z,77.82
2022-08-29T23:59:52.497Z,77.79
